Home > Products > Valid Products > TAF

000
FTUS41 KBOX 011508 AAA
TAFORH
TAF AMD
KORH 011508Z 0115/0212 20004KT P6SM OVC070
     FM011900 21008KT 3SM -SN OVC020
     FM012000 21008KT 1SM -SN OVC020
     FM020000 21006KT 1/2SM SN OVC010
     FM020500 24005KT 3SM -SN OVC040
     FM020700 24005KT P6SM OVC040=



000
FTUS41 KBOX 011508 AAA
TAFORH
TAF AMD
KORH 011508Z 0115/0212 20004KT P6SM OVC070
     FM011900 21008KT 3SM -SN OVC020
     FM012000 21008KT 1SM -SN OVC020
     FM020000 21006KT 1/2SM SN OVC010
     FM020500 24005KT 3SM -SN OVC040
     FM020700 24005KT P6SM OVC040=



000
FTUS41 KBOX 011506 AAA
TAFBAF
TAF AMD
KBAF 011506Z 0115/0212 VRB03KT P6SM OVC060
     FM011700 19004KT 4SM -SN OVC040
     FM011800 19006KT 2SM -SN OVC025
     FM020000 19005KT 1/2SM SN OVC010
     FM020500 VRB03KT 3SM -SN OVC030
     FM020700 00000KT P6SM OVC040=



000
FTUS41 KBOX 011506 AAA
TAFBAF
TAF AMD
KBAF 011506Z 0115/0212 VRB03KT P6SM OVC060
     FM011700 19004KT 4SM -SN OVC040
     FM011800 19006KT 2SM -SN OVC025
     FM020000 19005KT 1/2SM SN OVC010
     FM020500 VRB03KT 3SM -SN OVC030
     FM020700 00000KT P6SM OVC040=



000
FTUS41 KBOX 011505 AAA
TAFPVD
TAF AMD
KPVD 011505Z 0115/0212 VRB03KT P6SM OVC080
     FM011800 20006KT P6SM OVC050
     FM011900 20006KT 4SM -SN OVC040
     FM012000 19006KT 1SM -SN OVC020
     FM020000 20005KT 1/2SM SN OVC010
     FM020600 VRB03KT 2SM -SN OVC020
     FM020900 25005KT P6SM OVC040=



000
FTUS41 KBOX 011505 AAA
TAFPVD
TAF AMD
KPVD 011505Z 0115/0212 VRB03KT P6SM OVC080
     FM011800 20006KT P6SM OVC050
     FM011900 20006KT 4SM -SN OVC040
     FM012000 19006KT 1SM -SN OVC020
     FM020000 20005KT 1/2SM SN OVC010
     FM020600 VRB03KT 2SM -SN OVC020
     FM020900 25005KT P6SM OVC040=



000
FTUS41 KBOX 011504 AAA
TAFBDL
TAF AMD
KBDL 011504Z 0115/0218 VRB03KT P6SM OVC060
     FM011700 18004KT 3SM -SN OVC040
     FM011800 19006KT 1SM -SN OVC020
     FM020000 19005KT 1/2SM SN OVC010
     FM020500 VRB03KT 3SM -SN OVC030
     FM020600 VRB03KT P6SM OVC040
     FM021400 29010G18KT P6SM BKN050=



000
FTUS41 KBOX 011504 AAA
TAFBDL
TAF AMD
KBDL 011504Z 0115/0218 VRB03KT P6SM OVC060
     FM011700 18004KT 3SM -SN OVC040
     FM011800 19006KT 1SM -SN OVC020
     FM020000 19005KT 1/2SM SN OVC010
     FM020500 VRB03KT 3SM -SN OVC030
     FM020600 VRB03KT P6SM OVC040
     FM021400 29010G18KT P6SM BKN050=



000
FTUS41 KBOX 011501 AAA
TAFBOS
TAF AMD
KBOS 011501Z 0115/0218 18003KT P6SM OVC080
     FM011800 20007KT P6SM OVC050
     FM012100 19009KT 3SM -SN OVC035
     FM020000 20007KT 1/2SM SN OVC010
     FM020500 23005KT 3SM -SN OVC030
     FM020700 24005KT P6SM OVC040=



000
FTUS41 KBOX 011501 AAA
TAFBOS
TAF AMD
KBOS 011501Z 0115/0218 18003KT P6SM OVC080
     FM011800 20007KT P6SM OVC050
     FM012100 19009KT 3SM -SN OVC035
     FM020000 20007KT 1/2SM SN OVC010
     FM020500 23005KT 3SM -SN OVC030
     FM020700 24005KT P6SM OVC040=



000
FTUS41 KBOX 011133
TAFPVD
TAF
KPVD 011133Z 0112/0212 VRB03KT P6SM BKN250
     FM011800 20006KT P6SM OVC050
     FM012000 19006KT 1SM -SN OVC020
     FM020000 20005KT 1/2SM SN OVC010
     FM020600 VRB03KT 2SM -SN OVC020
     FM020900 25005KT P6SM OVC040=



000
FTUS41 KBOX 011133
TAFBDL
TAF
KBDL 011133Z 0112/0218 VRB03KT P6SM OVC100
     FM011800 19006KT 1SM -SN OVC020
     FM020000 19005KT 1/2SM SN OVC010
     FM020500 VRB03KT 3SM -SN OVC030
     FM020600 VRB03KT P6SM OVC040
     FM021400 29010G18KT P6SM BKN050=



000
FTUS41 KBOX 011133
TAFBAF
TAF
KBAF 011133Z 0112/0212 VRB03KT P6SM OVC100
     FM011800 19006KT 2SM -SN OVC025
     FM020000 19005KT 1/2SM SN OVC010
     FM020500 VRB03KT 3SM -SN OVC030
     FM020700 00000KT P6SM OVC040=



000
FTUS41 KBOX 011133
TAFORH
TAF
KORH 011133Z 0112/0212 27004KT P6SM BKN100
     FM011900 21008KT P6SM OVC020
     FM012000 21008KT 1SM -SN OVC020
     FM020000 21006KT 1/2SM SN OVC010
     FM020500 24005KT 3SM -SN OVC040
     FM020700 24005KT P6SM OVC040=



000
FTUS41 KBOX 011133
TAFACK
TAF
KACK 011133Z 0112/0212 VRB03KT P6SM SCT120
     FM011800 21008KT P6SM OVC060
     FM012200 18008KT 2SM -SN OVC020
     FM020000 18007KT 1/2SM SN OVC010
     FM020200 19006KT 1SM -SNRA OVC015
     FM020600 21005KT 3SM -RA OVC010=



000
FTUS41 KBOX 011133
TAFBOS
TAF
KBOS 011133Z 0112/0218 VRB03KT P6SM BKN250
     FM011800 21007KT P6SM OVC050
     FM012200 19009KT 3SM -SN OVC035
     FM020000 20007KT 1/2SM SN OVC010
     FM020500 23005KT 3SM -SN OVC030
     FM020700 24005KT P6SM OVC040=



000
FTUS41 KBOX 011133
TAFACK
TAF
KACK 011133Z 0112/0212 VRB03KT P6SM SCT120
     FM011800 21008KT P6SM OVC060
     FM012200 18008KT 2SM -SN OVC020
     FM020000 18007KT 1/2SM SN OVC010
     FM020200 19006KT 1SM -SNRA OVC015
     FM020600 21005KT 3SM -RA OVC010=



000
FTUS41 KBOX 011133
TAFPVD
TAF
KPVD 011133Z 0112/0212 VRB03KT P6SM BKN250
     FM011800 20006KT P6SM OVC050
     FM012000 19006KT 1SM -SN OVC020
     FM020000 20005KT 1/2SM SN OVC010
     FM020600 VRB03KT 2SM -SN OVC020
     FM020900 25005KT P6SM OVC040=



000
FTUS41 KBOX 011133
TAFBAF
TAF
KBAF 011133Z 0112/0212 VRB03KT P6SM OVC100
     FM011800 19006KT 2SM -SN OVC025
     FM020000 19005KT 1/2SM SN OVC010
     FM020500 VRB03KT 3SM -SN OVC030
     FM020700 00000KT P6SM OVC040=



000
FTUS41 KBOX 011133
TAFBOS
TAF
KBOS 011133Z 0112/0218 VRB03KT P6SM BKN250
     FM011800 21007KT P6SM OVC050
     FM012200 19009KT 3SM -SN OVC035
     FM020000 20007KT 1/2SM SN OVC010
     FM020500 23005KT 3SM -SN OVC030
     FM020700 24005KT P6SM OVC040=



000
FTUS41 KBOX 011133
TAFBDL
TAF
KBDL 011133Z 0112/0218 VRB03KT P6SM OVC100
     FM011800 19006KT 1SM -SN OVC020
     FM020000 19005KT 1/2SM SN OVC010
     FM020500 VRB03KT 3SM -SN OVC030
     FM020600 VRB03KT P6SM OVC040
     FM021400 29010G18KT P6SM BKN050=



000
FTUS41 KBOX 011133
TAFORH
TAF
KORH 011133Z 0112/0212 27004KT P6SM BKN100
     FM011900 21008KT P6SM OVC020
     FM012000 21008KT 1SM -SN OVC020
     FM020000 21006KT 1/2SM SN OVC010
     FM020500 24005KT 3SM -SN OVC040
     FM020700 24005KT P6SM OVC040=



000
FTUS41 KBOX 010933 AAA
TAFPVD
TAF AMD
KPVD 010933Z 0110/0206 VRB03KT P6SM FEW250
     FM011800 20006KT P6SM OVC040
     FM012100 20006KT 2SM -SN OVC020
     FM020000 20003KT 3/4SM -SN OVC015=



000
FTUS41 KBOX 010933 AAA
TAFPVD
TAF AMD
KPVD 010933Z 0110/0206 VRB03KT P6SM FEW250
     FM011800 20006KT P6SM OVC040
     FM012100 20006KT 2SM -SN OVC020
     FM020000 20003KT 3/4SM -SN OVC015=



000
FTUS41 KBOX 010932 AAA
TAFBOS
TAF AMD
KBOS 010932Z 0110/0212 VRB03KT P6SM FEW250
     FM011800 20007KT P6SM OVC050
     FM012200 20007KT 3SM -SN OVC035
     FM020000 20007KT 3/4SM -SN OVC015
     FM020600 23004KT 2SM -SN OVC010
     FM020800 25006KT P6SM OVC040=



000
FTUS41 KBOX 010932 AAA
TAFBOS
TAF AMD
KBOS 010932Z 0110/0212 VRB03KT P6SM FEW250
     FM011800 20007KT P6SM OVC050
     FM012200 20007KT 3SM -SN OVC035
     FM020000 20007KT 3/4SM -SN OVC015
     FM020600 23004KT 2SM -SN OVC010
     FM020800 25006KT P6SM OVC040=



000
FTUS41 KBOX 010932 AAA
TAFBDL
TAF AMD
KBDL 010932Z 0110/0212 VRB03KT P6SM SCT120 BKN250
     FM011800 19006KT 2SM -SN OVC020
     FM020000 19005KT 3/4SM -SN OVC015
     FM020600 VRB03KT P6SM OVC025
     FM021000 26004KT P6SM OVC040=



000
FTUS41 KBOX 010932 AAA
TAFBDL
TAF AMD
KBDL 010932Z 0110/0212 VRB03KT P6SM SCT120 BKN250
     FM011800 19006KT 2SM -SN OVC020
     FM020000 19005KT 3/4SM -SN OVC015
     FM020600 VRB03KT P6SM OVC025
     FM021000 26004KT P6SM OVC040=



000
FTUS41 KBOX 010537
TAFBDL
TAF
KBDL 010537Z 0106/0212 VRB03KT P6SM FEW250
     FM011000 15003KT P6SM BKN100
     FM011800 19006KT 2SM -SN OVC020
     FM020000 19005KT 3/4SM -SN OVC015
     FM020600 VRB03KT P6SM OVC025
     FM021000 26004KT P6SM OVC040=



000
FTUS41 KBOX 010537
TAFORH
TAF
KORH 010537Z 0106/0206 26006KT P6SM FEW250
     FM011100 24006KT P6SM BKN110
     FM011800 21006KT P6SM OVC030
     FM012100 21007KT 3SM -SN OVC020
     FM020000 21006KT 3/4SM -SN OVC015=



000
FTUS41 KBOX 010537
TAFACK
TAF
KACK 010537Z 0106/0206 29004KT P6SM FEW250
     FM011000 VRB03KT P6SM FEW150
     FM011400 20006KT P6SM BKN110
     FM011800 21007KT P6SM OVC050
     FM012300 18007KT 2SM -SN OVC020
     FM020100 19006KT 2SM -SNRA OVC015=



000
FTUS41 KBOX 010537
TAFBAF
TAF
KBAF 010537Z 0106/0206 00000KT P6SM FEW250
     FM011000 VRB03KT P6SM BKN100
     FM011800 19006KT 2SM -SN OVC020
     FM020000 19005KT 3/4SM -SN OVC015=



000
FTUS41 KBOX 010537
TAFBAF
TAF
KBAF 010537Z 0106/0206 00000KT P6SM FEW250
     FM011000 VRB03KT P6SM BKN100
     FM011800 19006KT 2SM -SN OVC020
     FM020000 19005KT 3/4SM -SN OVC015=



000
FTUS41 KBOX 010537
TAFACK
TAF
KACK 010537Z 0106/0206 29004KT P6SM FEW250
     FM011000 VRB03KT P6SM FEW150
     FM011400 20006KT P6SM BKN110
     FM011800 21007KT P6SM OVC050
     FM012300 18007KT 2SM -SN OVC020
     FM020100 19006KT 2SM -SNRA OVC015=



000
FTUS41 KBOX 010537
TAFBDL
TAF
KBDL 010537Z 0106/0212 VRB03KT P6SM FEW250
     FM011000 15003KT P6SM BKN100
     FM011800 19006KT 2SM -SN OVC020
     FM020000 19005KT 3/4SM -SN OVC015
     FM020600 VRB03KT P6SM OVC025
     FM021000 26004KT P6SM OVC040=



000
FTUS41 KBOX 010537
TAFBDL
TAF
KBDL 010537Z 0106/0212 VRB03KT P6SM FEW250
     FM011000 15003KT P6SM BKN100
     FM011800 19006KT 2SM -SN OVC020
     FM020000 19005KT 3/4SM -SN OVC015
     FM020600 VRB03KT P6SM OVC025
     FM021000 26004KT P6SM OVC040=



000
FTUS41 KBOX 010537
TAFBOS
TAF
KBOS 010537Z 0106/0212 27005KT P6SM FEW250
     FM011300 26004KT P6SM BKN110
     FM011800 20007KT P6SM OVC050
     FM012200 20007KT 3SM -SN OVC035
     FM020000 20007KT 3/4SM -SN OVC015
     FM020600 23004KT 2SM -SN OVC010
     FM020800 25006KT P6SM OVC040=



000
FTUS41 KBOX 010537
TAFPVD
TAF
KPVD 010537Z 0106/0206 28003KT P6SM FEW250
     FM011100 VRB03KT P6SM BKN100
     FM011800 20006KT P6SM OVC040
     FM012100 20006KT 2SM -SN OVC020
     FM020000 20003KT 3/4SM -SN OVC015=



000
FTUS41 KBOX 010537
TAFACK
TAF
KACK 010537Z 0106/0206 29004KT P6SM FEW250
     FM011000 VRB03KT P6SM FEW150
     FM011400 20006KT P6SM BKN110
     FM011800 21007KT P6SM OVC050
     FM012300 18007KT 2SM -SN OVC020
     FM020100 19006KT 2SM -SNRA OVC015=



000
FTUS41 KBOX 010537
TAFORH
TAF
KORH 010537Z 0106/0206 26006KT P6SM FEW250
     FM011100 24006KT P6SM BKN110
     FM011800 21006KT P6SM OVC030
     FM012100 21007KT 3SM -SN OVC020
     FM020000 21006KT 3/4SM -SN OVC015=



000
FTUS41 KBOX 010537
TAFBAF
TAF
KBAF 010537Z 0106/0206 00000KT P6SM FEW250
     FM011000 VRB03KT P6SM BKN100
     FM011800 19006KT 2SM -SN OVC020
     FM020000 19005KT 3/4SM -SN OVC015=



000
FTUS41 KBOX 010537
TAFORH
TAF
KORH 010537Z 0106/0206 26006KT P6SM FEW250
     FM011100 24006KT P6SM BKN110
     FM011800 21006KT P6SM OVC030
     FM012100 21007KT 3SM -SN OVC020
     FM020000 21006KT 3/4SM -SN OVC015=



000
FTUS41 KBOX 010537
TAFPVD
TAF
KPVD 010537Z 0106/0206 28003KT P6SM FEW250
     FM011100 VRB03KT P6SM BKN100
     FM011800 20006KT P6SM OVC040
     FM012100 20006KT 2SM -SN OVC020
     FM020000 20003KT 3/4SM -SN OVC015=



000
FTUS41 KBOX 010537
TAFBOS
TAF
KBOS 010537Z 0106/0212 27005KT P6SM FEW250
     FM011300 26004KT P6SM BKN110
     FM011800 20007KT P6SM OVC050
     FM012200 20007KT 3SM -SN OVC035
     FM020000 20007KT 3/4SM -SN OVC015
     FM020600 23004KT 2SM -SN OVC010
     FM020800 25006KT P6SM OVC040=



000
FTUS41 KBOX 010537
TAFPVD
TAF
KPVD 010537Z 0106/0206 28003KT P6SM FEW250
     FM011100 VRB03KT P6SM BKN100
     FM011800 20006KT P6SM OVC040
     FM012100 20006KT 2SM -SN OVC020
     FM020000 20003KT 3/4SM -SN OVC015=



000
FTUS41 KBOX 010537
TAFORH
TAF
KORH 010537Z 0106/0206 26006KT P6SM FEW250
     FM011100 24006KT P6SM BKN110
     FM011800 21006KT P6SM OVC030
     FM012100 21007KT 3SM -SN OVC020
     FM020000 21006KT 3/4SM -SN OVC015=



000
FTUS41 KBOX 010537
TAFACK
TAF
KACK 010537Z 0106/0206 29004KT P6SM FEW250
     FM011000 VRB03KT P6SM FEW150
     FM011400 20006KT P6SM BKN110
     FM011800 21007KT P6SM OVC050
     FM012300 18007KT 2SM -SN OVC020
     FM020100 19006KT 2SM -SNRA OVC015=



000
FTUS41 KBOX 010537
TAFBDL
TAF
KBDL 010537Z 0106/0212 VRB03KT P6SM FEW250
     FM011000 15003KT P6SM BKN100
     FM011800 19006KT 2SM -SN OVC020
     FM020000 19005KT 3/4SM -SN OVC015
     FM020600 VRB03KT P6SM OVC025
     FM021000 26004KT P6SM OVC040=



000
FTUS41 KBOX 010537
TAFBAF
TAF
KBAF 010537Z 0106/0206 00000KT P6SM FEW250
     FM011000 VRB03KT P6SM BKN100
     FM011800 19006KT 2SM -SN OVC020
     FM020000 19005KT 3/4SM -SN OVC015=



000
FTUS41 KBOX 010537
TAFBOS
TAF
KBOS 010537Z 0106/0212 27005KT P6SM FEW250
     FM011300 26004KT P6SM BKN110
     FM011800 20007KT P6SM OVC050
     FM012200 20007KT 3SM -SN OVC035
     FM020000 20007KT 3/4SM -SN OVC015
     FM020600 23004KT 2SM -SN OVC010
     FM020800 25006KT P6SM OVC040=



000
FTUS41 KBOX 010537
TAFPVD
TAF
KPVD 010537Z 0106/0206 28003KT P6SM FEW250
     FM011100 VRB03KT P6SM BKN100
     FM011800 20006KT P6SM OVC040
     FM012100 20006KT 2SM -SN OVC020
     FM020000 20003KT 3/4SM -SN OVC015=



000
FTUS41 KBOX 010537
TAFBOS
TAF
KBOS 010537Z 0106/0212 27005KT P6SM FEW250
     FM011300 26004KT P6SM BKN110
     FM011800 20007KT P6SM OVC050
     FM012200 20007KT 3SM -SN OVC035
     FM020000 20007KT 3/4SM -SN OVC015
     FM020600 23004KT 2SM -SN OVC010
     FM020800 25006KT P6SM OVC040=



000
FTUS41 KBOX 282324
TAFBDL
TAF
KBDL 282324Z 0100/0206 VRB03KT P6SM SKC
     FM011000 00000KT P6SM BKN100
     FM011800 18005KT P6SM OVC015
     FM012000 19007KT 2SM -SN OVC015
     FM012300 18004KT 1/2SM SN OVC007=



000
FTUS41 KBOX 282324
TAFACK
TAF
KACK 282324Z 0100/0124 26005KT P6SM SKC
     FM011500 21006KT P6SM BKN100
     FM012200 20008KT 3SM -SN OVC050=



000
FTUS41 KBOX 282324
TAFBAF
TAF
KBAF 282324Z 0100/0124 29004KT P6SM SKC
     FM011100 00000KT P6SM BKN100
     FM011800 18005KT P6SM OVC015
     FM012000 19007KT 2SM -SN OVC015=



000
FTUS41 KBOX 282324
TAFPVD
TAF
KPVD 282324Z 0100/0124 00000KT P6SM SKC
     FM011200 00000KT P6SM BKN110
     FM011800 20006KT P6SM OVC050
     FM012100 20006KT 2SM -SN OVC040=



000
FTUS41 KBOX 282324
TAFACK
TAF
KACK 282324Z 0100/0124 26005KT P6SM SKC
     FM011500 21006KT P6SM BKN100
     FM012200 20008KT 3SM -SN OVC050=



000
FTUS41 KBOX 282324
TAFBOS
TAF
KBOS 282324Z 0100/0206 24005KT P6SM SKC
     FM011500 22005KT P6SM BKN100
     FM012000 20009KT P6SM OVC050
     FM012200 20009KT 3SM -SN OVC050
     FM020100 20008KT 1/2SM SN OVC008=



000
FTUS41 KBOX 282324
TAFPVD
TAF
KPVD 282324Z 0100/0124 00000KT P6SM SKC
     FM011200 00000KT P6SM BKN110
     FM011800 20006KT P6SM OVC050
     FM012100 20006KT 2SM -SN OVC040=



000
FTUS41 KBOX 282324
TAFACK
TAF
KACK 282324Z 0100/0124 26005KT P6SM SKC
     FM011500 21006KT P6SM BKN100
     FM012200 20008KT 3SM -SN OVC050=



000
FTUS41 KBOX 282324
TAFBDL
TAF
KBDL 282324Z 0100/0206 VRB03KT P6SM SKC
     FM011000 00000KT P6SM BKN100
     FM011800 18005KT P6SM OVC015
     FM012000 19007KT 2SM -SN OVC015
     FM012300 18004KT 1/2SM SN OVC007=



000
FTUS41 KBOX 282324
TAFORH
TAF
KORH 282324Z 0100/0124 27005KT P6SM SKC
     FM011200 VRB03KT P6SM BKN110
     FM012100 21008KT 3SM -SN OVC045
     FM012300 21008KT 1SM -SN OVC020=



000
FTUS41 KBOX 282324
TAFBOS
TAF
KBOS 282324Z 0100/0206 24005KT P6SM SKC
     FM011500 22005KT P6SM BKN100
     FM012000 20009KT P6SM OVC050
     FM012200 20009KT 3SM -SN OVC050
     FM020100 20008KT 1/2SM SN OVC008=



000
FTUS41 KBOX 282324
TAFBOS
TAF
KBOS 282324Z 0100/0206 24005KT P6SM SKC
     FM011500 22005KT P6SM BKN100
     FM012000 20009KT P6SM OVC050
     FM012200 20009KT 3SM -SN OVC050
     FM020100 20008KT 1/2SM SN OVC008=



000
FTUS41 KBOX 282324
TAFBDL
TAF
KBDL 282324Z 0100/0206 VRB03KT P6SM SKC
     FM011000 00000KT P6SM BKN100
     FM011800 18005KT P6SM OVC015
     FM012000 19007KT 2SM -SN OVC015
     FM012300 18004KT 1/2SM SN OVC007=



000
FTUS41 KBOX 282324
TAFORH
TAF
KORH 282324Z 0100/0124 27005KT P6SM SKC
     FM011200 VRB03KT P6SM BKN110
     FM012100 21008KT 3SM -SN OVC045
     FM012300 21008KT 1SM -SN OVC020=



000
FTUS41 KBOX 282324
TAFBAF
TAF
KBAF 282324Z 0100/0124 29004KT P6SM SKC
     FM011100 00000KT P6SM BKN100
     FM011800 18005KT P6SM OVC015
     FM012000 19007KT 2SM -SN OVC015=



000
FTUS41 KBOX 282324
TAFORH
TAF
KORH 282324Z 0100/0124 27005KT P6SM SKC
     FM011200 VRB03KT P6SM BKN110
     FM012100 21008KT 3SM -SN OVC045
     FM012300 21008KT 1SM -SN OVC020=



000
FTUS41 KBOX 282324
TAFBAF
TAF
KBAF 282324Z 0100/0124 29004KT P6SM SKC
     FM011100 00000KT P6SM BKN100
     FM011800 18005KT P6SM OVC015
     FM012000 19007KT 2SM -SN OVC015=



000
FTUS41 KBOX 282324
TAFBDL
TAF
KBDL 282324Z 0100/0206 VRB03KT P6SM SKC
     FM011000 00000KT P6SM BKN100
     FM011800 18005KT P6SM OVC015
     FM012000 19007KT 2SM -SN OVC015
     FM012300 18004KT 1/2SM SN OVC007=



000
FTUS41 KBOX 282324
TAFBOS
TAF
KBOS 282324Z 0100/0206 24005KT P6SM SKC
     FM011500 22005KT P6SM BKN100
     FM012000 20009KT P6SM OVC050
     FM012200 20009KT 3SM -SN OVC050
     FM020100 20008KT 1/2SM SN OVC008=



000
FTUS41 KBOX 282324
TAFORH
TAF
KORH 282324Z 0100/0124 27005KT P6SM SKC
     FM011200 VRB03KT P6SM BKN110
     FM012100 21008KT 3SM -SN OVC045
     FM012300 21008KT 1SM -SN OVC020=



000
FTUS41 KBOX 282324
TAFBAF
TAF
KBAF 282324Z 0100/0124 29004KT P6SM SKC
     FM011100 00000KT P6SM BKN100
     FM011800 18005KT P6SM OVC015
     FM012000 19007KT 2SM -SN OVC015=



000
FTUS41 KBOX 282324
TAFPVD
TAF
KPVD 282324Z 0100/0124 00000KT P6SM SKC
     FM011200 00000KT P6SM BKN110
     FM011800 20006KT P6SM OVC050
     FM012100 20006KT 2SM -SN OVC040=



000
FTUS41 KBOX 282324
TAFACK
TAF
KACK 282324Z 0100/0124 26005KT P6SM SKC
     FM011500 21006KT P6SM BKN100
     FM012200 20008KT 3SM -SN OVC050=



000
FTUS41 KBOX 282324
TAFPVD
TAF
KPVD 282324Z 0100/0124 00000KT P6SM SKC
     FM011200 00000KT P6SM BKN110
     FM011800 20006KT P6SM OVC050
     FM012100 20006KT 2SM -SN OVC040=



000
FTUS41 KBOX 282146 AAA
TAFORH
TAF AMD
KORH 282146Z 2822/0118 27005KT P6SM SKC
     FM011400 23004KT P6SM BKN100=



000
FTUS41 KBOX 282146 AAA
TAFBOS
TAF AMD
KBOS 282146Z 2822/0124 29004KT P6SM SKC
     FM011500 22005KT P6SM BKN100
     FM012000 20009KT P6SM OVC050
     FM012300 20009KT 3SM -SN OVC025=



000
FTUS41 KBOX 282146 AAA
TAFBAF
TAF AMD
KBAF 282146Z 2822/0118 VRB03KT P6SM SKC
     FM011100 00000KT P6SM BKN100=



000
FTUS41 KBOX 282146 AAA
TAFPVD
TAF AMD
KPVD 282146Z 2822/0118 VRB03KT P6SM SKC
     FM011300 00000KT P6SM BKN110=



000
FTUS41 KBOX 282146 AAA
TAFBDL
TAF AMD
KBDL 282146Z 2822/0124 VRB04KT P6SM SKC
     FM011100 VRB05KT P6SM BKN100
     FM011900 19006KT P6SM OVC035
     FM012100 19007KT 2SM -SN OVC015=



000
FTUS41 KBOX 282146 AAA
TAFACK
TAF AMD
KACK 282146Z 2822/0118 31005KT P6SM FEW200
     FM011000 VRB03KT P6SM FEW140
     FM011500 21006KT P6SM BKN100=



000
FTUS41 KBOX 282146 AAA
TAFPVD
TAF AMD
KPVD 282146Z 2822/0118 VRB03KT P6SM SKC
     FM011300 00000KT P6SM BKN110=



000
FTUS41 KBOX 282146 AAA
TAFORH
TAF AMD
KORH 282146Z 2822/0118 27005KT P6SM SKC
     FM011400 23004KT P6SM BKN100=



000
FTUS41 KBOX 282146 AAA
TAFBAF
TAF AMD
KBAF 282146Z 2822/0118 VRB03KT P6SM SKC
     FM011100 00000KT P6SM BKN100=



000
FTUS41 KBOX 282146 AAA
TAFBOS
TAF AMD
KBOS 282146Z 2822/0124 29004KT P6SM SKC
     FM011500 22005KT P6SM BKN100
     FM012000 20009KT P6SM OVC050
     FM012300 20009KT 3SM -SN OVC025=



000
FTUS41 KBOX 282146 AAA
TAFACK
TAF AMD
KACK 282146Z 2822/0118 31005KT P6SM FEW200
     FM011000 VRB03KT P6SM FEW140
     FM011500 21006KT P6SM BKN100=



000
FTUS41 KBOX 282146 AAA
TAFBDL
TAF AMD
KBDL 282146Z 2822/0124 VRB04KT P6SM SKC
     FM011100 VRB05KT P6SM BKN100
     FM011900 19006KT P6SM OVC035
     FM012100 19007KT 2SM -SN OVC015=



000
FTUS41 KBOX 282146 AAA
TAFBAF
TAF AMD
KBAF 282146Z 2822/0118 VRB03KT P6SM SKC
     FM011100 00000KT P6SM BKN100=



000
FTUS41 KBOX 282146 AAA
TAFBOS
TAF AMD
KBOS 282146Z 2822/0124 29004KT P6SM SKC
     FM011500 22005KT P6SM BKN100
     FM012000 20009KT P6SM OVC050
     FM012300 20009KT 3SM -SN OVC025=



000
FTUS41 KBOX 282146 AAA
TAFORH
TAF AMD
KORH 282146Z 2822/0118 27005KT P6SM SKC
     FM011400 23004KT P6SM BKN100=



000
FTUS41 KBOX 282146 AAA
TAFBDL
TAF AMD
KBDL 282146Z 2822/0124 VRB04KT P6SM SKC
     FM011100 VRB05KT P6SM BKN100
     FM011900 19006KT P6SM OVC035
     FM012100 19007KT 2SM -SN OVC015=



000
FTUS41 KBOX 282146 AAA
TAFPVD
TAF AMD
KPVD 282146Z 2822/0118 VRB03KT P6SM SKC
     FM011300 00000KT P6SM BKN110=



000
FTUS41 KBOX 282146 AAA
TAFORH
TAF AMD
KORH 282146Z 2822/0118 27005KT P6SM SKC
     FM011400 23004KT P6SM BKN100=



000
FTUS41 KBOX 282146 AAA
TAFBDL
TAF AMD
KBDL 282146Z 2822/0124 VRB04KT P6SM SKC
     FM011100 VRB05KT P6SM BKN100
     FM011900 19006KT P6SM OVC035
     FM012100 19007KT 2SM -SN OVC015=



000
FTUS41 KBOX 282146 AAA
TAFBAF
TAF AMD
KBAF 282146Z 2822/0118 VRB03KT P6SM SKC
     FM011100 00000KT P6SM BKN100=



000
FTUS41 KBOX 282146 AAA
TAFACK
TAF AMD
KACK 282146Z 2822/0118 31005KT P6SM FEW200
     FM011000 VRB03KT P6SM FEW140
     FM011500 21006KT P6SM BKN100=



000
FTUS41 KBOX 282146 AAA
TAFBOS
TAF AMD
KBOS 282146Z 2822/0124 29004KT P6SM SKC
     FM011500 22005KT P6SM BKN100
     FM012000 20009KT P6SM OVC050
     FM012300 20009KT 3SM -SN OVC025=



000
FTUS41 KBOX 282146 AAA
TAFPVD
TAF AMD
KPVD 282146Z 2822/0118 VRB03KT P6SM SKC
     FM011300 00000KT P6SM BKN110=



000
FTUS41 KBOX 281724
TAFPVD
TAF
KPVD 281724Z 2818/0118 VRB03KT P6SM SKC
     FM011300 00000KT P6SM BKN110=



000
FTUS41 KBOX 281724
TAFACK
TAF
KACK 281724Z 2818/0118 31005KT P6SM FEW200
     FM011000 VRB03KT P6SM FEW140
     FM011500 21006KT P6SM BKN100=



000
FTUS41 KBOX 281724
TAFBAF
TAF
KBAF 281724Z 2818/0118 VRB03KT P6SM SKC
     FM011100 00000KT P6SM BKN100=



000
FTUS41 KBOX 281724
TAFBOS
TAF
KBOS 281724Z 2818/0124 29004KT P6SM SKC
     FM011500 22005KT P6SM BKN100
     FM012000 20009KT P6SM OVC050
     FM012300 20009KT 3SM -SN OVC025=



000
FTUS41 KBOX 281724
TAFBDL
TAF
KBDL 281724Z 2818/0124 VRB04KT P6SM SKC
     FM011100 VRB05KT P6SM BKN100
     FM011900 19006KT P6SM OVC035
     FM012100 19007KT 2SM -SN OVC015=



000
FTUS41 KBOX 281724
TAFORH
TAF
KORH 281724Z 2818/0118 27005KT P6SM SKC
     FM011400 23004KT P6SM BKN100=



000
FTUS41 KBOX 281501 AAA
TAFORH
TAF AMD
KORH 281501Z 2815/0112 30007KT P6SM SKC
     FM282300 25004KT P6SM FEW250=



000
FTUS41 KBOX 281501 AAA
TAFBOS
TAF AMD
KBOS 281501Z 2815/0118 29007KT P6SM SKC
     FM282200 26006KT P6SM SKC
     FM011500 25005KT P6SM BKN090=



000
FTUS41 KBOX 281501 AAA
TAFBAF
TAF AMD
KBAF 281501Z 2815/0112 VRB03KT P6SM SKC
     FM011100 00000KT P6SM BKN110=



000
FTUS41 KBOX 281501 AAA
TAFPVD
TAF AMD
KPVD 281501Z 2815/0112 32005KT P6SM SKC
     FM282300 26004KT P6SM FEW150
     FM010800 00000KT P6SM SCT250=



000
FTUS41 KBOX 281501 AAA
TAFBAF
TAF AMD
KBAF 281501Z 2815/0112 VRB03KT P6SM SKC
     FM011100 00000KT P6SM BKN110=



000
FTUS41 KBOX 281501 AAA
TAFBDL
TAF AMD
KBDL 281501Z 2815/0118 VRB03KT P6SM SKC
     FM011100 00000KT P6SM BKN100=



000
FTUS41 KBOX 281501 AAA
TAFORH
TAF AMD
KORH 281501Z 2815/0112 30007KT P6SM SKC
     FM282300 25004KT P6SM FEW250=



000
FTUS41 KBOX 281501 AAA
TAFACK
TAF AMD
KACK 281501Z 2815/0112 33009KT P6SM SKC
     FM282000 29006KT P6SM SKC=



000
FTUS41 KBOX 281501 AAA
TAFBOS
TAF AMD
KBOS 281501Z 2815/0118 29007KT P6SM SKC
     FM282200 26006KT P6SM SKC
     FM011500 25005KT P6SM BKN090=



000
FTUS41 KBOX 281501 AAA
TAFPVD
TAF AMD
KPVD 281501Z 2815/0112 32005KT P6SM SKC
     FM282300 26004KT P6SM FEW150
     FM010800 00000KT P6SM SCT250=



000
FTUS41 KBOX 281501 AAA
TAFACK
TAF AMD
KACK 281501Z 2815/0112 33009KT P6SM SKC
     FM282000 29006KT P6SM SKC=



000
FTUS41 KBOX 281501 AAA
TAFBDL
TAF AMD
KBDL 281501Z 2815/0118 VRB03KT P6SM SKC
     FM011100 00000KT P6SM BKN100=



000
FTUS41 KBOX 281139
TAFACK
TAF
KACK 281139Z 2812/0112 33008KT P6SM SKC
     FM282000 29006KT P6SM SKC=



000
FTUS41 KBOX 281139
TAFORH
TAF
KORH 281139Z 2812/0112 31006KT P6SM SKC
     FM282300 25004KT P6SM FEW250=



000
FTUS41 KBOX 281139
TAFBOS
TAF
KBOS 281139Z 2812/0118 29007KT P6SM SKC
     FM282200 26006KT P6SM SKC
     FM011500 25005KT P6SM BKN090=



000
FTUS41 KBOX 281139
TAFBDL
TAF
KBDL 281139Z 2812/0118 VRB03KT P6SM SKC
     FM011100 00000KT P6SM BKN100=



000
FTUS41 KBOX 281139
TAFPVD
TAF
KPVD 281139Z 2812/0112 30005KT P6SM SKC
     FM282300 26004KT P6SM FEW150
     FM010800 00000KT P6SM SCT250=



000
FTUS41 KBOX 281139
TAFBAF
TAF
KBAF 281139Z 2812/0112 VRB03KT P6SM SKC
     FM011100 00000KT P6SM BKN110=



000
FTUS41 KBOX 281139
TAFBDL
TAF
KBDL 281139Z 2812/0118 VRB03KT P6SM SKC
     FM011100 00000KT P6SM BKN100=



000
FTUS41 KBOX 281139
TAFBOS
TAF
KBOS 281139Z 2812/0118 29007KT P6SM SKC
     FM282200 26006KT P6SM SKC
     FM011500 25005KT P6SM BKN090=



000
FTUS41 KBOX 281139
TAFORH
TAF
KORH 281139Z 2812/0112 31006KT P6SM SKC
     FM282300 25004KT P6SM FEW250=



000
FTUS41 KBOX 281139
TAFBAF
TAF
KBAF 281139Z 2812/0112 VRB03KT P6SM SKC
     FM011100 00000KT P6SM BKN110=



000
FTUS41 KBOX 281139
TAFACK
TAF
KACK 281139Z 2812/0112 33008KT P6SM SKC
     FM282000 29006KT P6SM SKC=



000
FTUS41 KBOX 281139
TAFPVD
TAF
KPVD 281139Z 2812/0112 30005KT P6SM SKC
     FM282300 26004KT P6SM FEW150
     FM010800 00000KT P6SM SCT250=



000
FTUS41 KBOX 280959 AAA
TAFPVD
TAF AMD
KPVD 280959Z 2810/0106 32006KT P6SM SKC=



000
FTUS41 KBOX 280959 AAA
TAFPVD
TAF AMD
KPVD 280959Z 2810/0106 32006KT P6SM SKC=



000
FTUS41 KBOX 280959 AAA
TAFPVD
TAF AMD
KPVD 280959Z 2810/0106 32006KT P6SM SKC=



000
FTUS41 KBOX 280959 AAA
TAFPVD
TAF AMD
KPVD 280959Z 2810/0106 32006KT P6SM SKC=



000
FTUS41 KBOX 280958 AAA
TAFBDL
TAF AMD
KBDL 280958Z 2810/0112 32004KT P6SM SKC=



000
FTUS41 KBOX 280958 AAA
TAFBDL
TAF AMD
KBDL 280958Z 2810/0112 32004KT P6SM SKC=



000
FTUS41 KBOX 280958 AAA
TAFBDL
TAF AMD
KBDL 280958Z 2810/0112 32004KT P6SM SKC=



000
FTUS41 KBOX 280958 AAA
TAFBDL
TAF AMD
KBDL 280958Z 2810/0112 32004KT P6SM SKC=



000
FTUS41 KBOX 280957 AAA
TAFBOS
TAF AMD
KBOS 280957Z 2810/0112 30010KT P6SM SKC
     FM282200 26006KT P6SM SKC=



000
FTUS41 KBOX 280957 AAA
TAFBOS
TAF AMD
KBOS 280957Z 2810/0112 30010KT P6SM SKC
     FM282200 26006KT P6SM SKC=



000
FTUS41 KBOX 280957 AAA
TAFBOS
TAF AMD
KBOS 280957Z 2810/0112 30010KT P6SM SKC
     FM282200 26006KT P6SM SKC=



000
FTUS41 KBOX 280538
TAFBAF
TAF
KBAF 280538Z 2806/0106 33005KT P6SM SKC=



000
FTUS41 KBOX 280538
TAFACK
TAF
KACK 280538Z 2806/0106 32008KT P6SM SKC
     FM282300 28004KT P6SM FEW150=



000
FTUS41 KBOX 280538
TAFORH
TAF
KORH 280538Z 2806/0106 30008KT P6SM SKC
     FM281800 28004KT P6SM SKC=



000
FTUS41 KBOX 280538
TAFBOS
TAF
KBOS 280538Z 2806/0112 31010KT P6SM SKC
     FM282200 26006KT P6SM SKC=



000
FTUS41 KBOX 280538
TAFPVD
TAF
KPVD 280538Z 2806/0106 31006KT P6SM SKC=



000
FTUS41 KBOX 280538
TAFBDL
TAF
KBDL 280538Z 2806/0112 33005KT P6SM SKC=



000
FTUS41 KBOX 280538
TAFACK
TAF
KACK 280538Z 2806/0106 32008KT P6SM SKC
     FM282300 28004KT P6SM FEW150=



000
FTUS41 KBOX 280538
TAFBAF
TAF
KBAF 280538Z 2806/0106 33005KT P6SM SKC=



000
FTUS41 KBOX 280538
TAFPVD
TAF
KPVD 280538Z 2806/0106 31006KT P6SM SKC=



000
FTUS41 KBOX 280538
TAFBOS
TAF
KBOS 280538Z 2806/0112 31010KT P6SM SKC
     FM282200 26006KT P6SM SKC=



000
FTUS41 KBOX 280538
TAFBAF
TAF
KBAF 280538Z 2806/0106 33005KT P6SM SKC=



000
FTUS41 KBOX 280538
TAFBDL
TAF
KBDL 280538Z 2806/0112 33005KT P6SM SKC=



000
FTUS41 KBOX 280538
TAFORH
TAF
KORH 280538Z 2806/0106 30008KT P6SM SKC
     FM281800 28004KT P6SM SKC=



000
FTUS41 KBOX 280538
TAFACK
TAF
KACK 280538Z 2806/0106 32008KT P6SM SKC
     FM282300 28004KT P6SM FEW150=



000
FTUS41 KBOX 280538
TAFPVD
TAF
KPVD 280538Z 2806/0106 31006KT P6SM SKC=



000
FTUS41 KBOX 280538
TAFBDL
TAF
KBDL 280538Z 2806/0112 33005KT P6SM SKC=



000
FTUS41 KBOX 280538
TAFORH
TAF
KORH 280538Z 2806/0106 30008KT P6SM SKC
     FM281800 28004KT P6SM SKC=



000
FTUS41 KBOX 280538
TAFBOS
TAF
KBOS 280538Z 2806/0112 31010KT P6SM SKC
     FM282200 26006KT P6SM SKC=



000
FTUS41 KBOX 280538
TAFPVD
TAF
KPVD 280538Z 2806/0106 31006KT P6SM SKC=



000
FTUS41 KBOX 280538
TAFACK
TAF
KACK 280538Z 2806/0106 32008KT P6SM SKC
     FM282300 28004KT P6SM FEW150=



000
FTUS41 KBOX 280538
TAFBDL
TAF
KBDL 280538Z 2806/0112 33005KT P6SM SKC=



000
FTUS41 KBOX 280538
TAFBOS
TAF
KBOS 280538Z 2806/0112 31010KT P6SM SKC
     FM282200 26006KT P6SM SKC=



000
FTUS41 KBOX 280538
TAFBAF
TAF
KBAF 280538Z 2806/0106 33005KT P6SM SKC=



000
FTUS41 KBOX 280538
TAFORH
TAF
KORH 280538Z 2806/0106 30008KT P6SM SKC
     FM281800 28004KT P6SM SKC=



000
FTUS41 KBOX 272320
TAFORH
TAF
KORH 272320Z 2800/2824 28006KT P6SM FEW250=



000
FTUS41 KBOX 272320
TAFACK
TAF
KACK 272320Z 2800/2824 29007KT P6SM FEW250
     FM280600 33009KT P6SM FEW250
     FM282200 29006KT P6SM SKC=



000
FTUS41 KBOX 272320
TAFPVD
TAF
KPVD 272320Z 2800/2824 25005KT P6SM FEW250
     FM280400 31005KT P6SM SKC=



000
FTUS41 KBOX 272320
TAFBAF
TAF
KBAF 272320Z 2800/2824 32006KT P6SM FEW250=



000
FTUS41 KBOX 272320
TAFACK
TAF
KACK 272320Z 2800/2824 29007KT P6SM FEW250
     FM280600 33009KT P6SM FEW250
     FM282200 29006KT P6SM SKC=



000
FTUS41 KBOX 272320
TAFBDL
TAF
KBDL 272320Z 2800/0106 31006KT P6SM SKC
     FM010500 00000KT P6SM SKC=



000
FTUS41 KBOX 272320
TAFBOS
TAF
KBOS 272320Z 2800/0106 29006KT P6SM FEW250=



000
FTUS41 KBOX 272320
TAFPVD
TAF
KPVD 272320Z 2800/2824 25005KT P6SM FEW250
     FM280400 31005KT P6SM SKC=



000
FTUS41 KBOX 272320
TAFPVD
TAF
KPVD 272320Z 2800/2824 25005KT P6SM FEW250
     FM280400 31005KT P6SM SKC=



000
FTUS41 KBOX 272320
TAFBDL
TAF
KBDL 272320Z 2800/0106 31006KT P6SM SKC
     FM010500 00000KT P6SM SKC=



000
FTUS41 KBOX 272320
TAFBOS
TAF
KBOS 272320Z 2800/0106 29006KT P6SM FEW250=



000
FTUS41 KBOX 272320
TAFACK
TAF
KACK 272320Z 2800/2824 29007KT P6SM FEW250
     FM280600 33009KT P6SM FEW250
     FM282200 29006KT P6SM SKC=



000
FTUS41 KBOX 272320
TAFORH
TAF
KORH 272320Z 2800/2824 28006KT P6SM FEW250=



000
FTUS41 KBOX 272320
TAFBAF
TAF
KBAF 272320Z 2800/2824 32006KT P6SM FEW250=



000
FTUS41 KBOX 272320
TAFORH
TAF
KORH 272320Z 2800/2824 28006KT P6SM FEW250=



000
FTUS41 KBOX 272111 AAA
TAFPVD
TAF AMD
KPVD 272111Z 2721/2818 31005KT P6SM FEW250=



000
FTUS41 KBOX 272111 AAA
TAFPVD
TAF AMD
KPVD 272111Z 2721/2818 31005KT P6SM FEW250=



000
FTUS41 KBOX 272111 AAA
TAFBDL
TAF AMD
KBDL 272111Z 2721/2824 31010KT P6SM FEW250=



000
FTUS41 KBOX 272111 AAA
TAFPVD
TAF AMD
KPVD 272111Z 2721/2818 31005KT P6SM FEW250=



000
FTUS41 KBOX 272111 AAA
TAFPVD
TAF AMD
KPVD 272111Z 2721/2818 31005KT P6SM FEW250=



000
FTUS41 KBOX 272111 AAA
TAFBDL
TAF AMD
KBDL 272111Z 2721/2824 31010KT P6SM FEW250=



000
FTUS41 KBOX 272111 AAA
TAFBDL
TAF AMD
KBDL 272111Z 2721/2824 31010KT P6SM FEW250=



000
FTUS41 KBOX 272111 AAA
TAFBDL
TAF AMD
KBDL 272111Z 2721/2824 31010KT P6SM FEW250=



000
FTUS41 KBOX 272110 AAA
TAFBOS
TAF AMD
KBOS 272110Z 2721/2824 31003KT P6SM FEW250=



000
FTUS41 KBOX 272110 AAA
TAFBOS
TAF AMD
KBOS 272110Z 2721/2824 31003KT P6SM FEW250=



000
FTUS41 KBOX 272110 AAA
TAFBOS
TAF AMD
KBOS 272110Z 2721/2824 31003KT P6SM FEW250=



000
FTUS41 KBOX 272110 AAA
TAFBOS
TAF AMD
KBOS 272110Z 2721/2824 31003KT P6SM FEW250=



000
FTUS41 KBOX 271720
TAFBAF
TAF
KBAF 271720Z 2718/2818 31006KT P6SM FEW250=



000
FTUS41 KBOX 271720
TAFORH
TAF
KORH 271720Z 2718/2818 31011KT P6SM FEW250=



000
FTUS41 KBOX 271720
TAFACK
TAF
KACK 271720Z 2718/2818 32008KT P6SM SCT100
     FM280700 33009KT P6SM FEW250=



000
FTUS41 KBOX 271720
TAFPVD
TAF
KPVD 271720Z 2718/2818 33005KT P6SM BKN250=



000
FTUS41 KBOX 271720
TAFBDL
TAF
KBDL 271720Z 2718/2824 33006KT P6SM FEW250=



000
FTUS41 KBOX 271720
TAFORH
TAF
KORH 271720Z 2718/2818 31011KT P6SM FEW250=



000
FTUS41 KBOX 271720
TAFBAF
TAF
KBAF 271720Z 2718/2818 31006KT P6SM FEW250=



000
FTUS41 KBOX 271720
TAFPVD
TAF
KPVD 271720Z 2718/2818 33005KT P6SM BKN250=



000
FTUS41 KBOX 271720
TAFBOS
TAF
KBOS 271720Z 2718/2824 30010KT P6SM FEW250=



000
FTUS41 KBOX 271720
TAFACK
TAF
KACK 271720Z 2718/2818 32008KT P6SM SCT100
     FM280700 33009KT P6SM FEW250=



000
FTUS41 KBOX 271720
TAFBOS
TAF
KBOS 271720Z 2718/2824 30010KT P6SM FEW250=



000
FTUS41 KBOX 271720
TAFBDL
TAF
KBDL 271720Z 2718/2824 33006KT P6SM FEW250=



000
FTUS41 KBOX 271505 AAA
TAFPVD
TAF AMD
KPVD 271505Z 2715/2812 34008KT P6SM FEW250=



000
FTUS41 KBOX 271505 AAA
TAFPVD
TAF AMD
KPVD 271505Z 2715/2812 34008KT P6SM FEW250=



000
FTUS41 KBOX 271503 AAA
TAFBDL
TAF AMD
KBDL 271503Z 2715/2818 36005KT P6SM SCT100=



000
FTUS41 KBOX 271503 AAA
TAFBDL
TAF AMD
KBDL 271503Z 2715/2818 36005KT P6SM SCT100=



000
FTUS41 KBOX 271502 AAA
TAFBOS
TAF AMD
KBOS 271502Z 2715/2818 32007KT P6SM FEW050 FEW250
     FM281700 28006KT P6SM SKC=



000
FTUS41 KBOX 271502 AAA
TAFBOS
TAF AMD
KBOS 271502Z 2715/2818 32007KT P6SM FEW050 FEW250
     FM281700 28006KT P6SM SKC=



000
FTUS41 KBOX 271133
TAFPVD
TAF
KPVD 271133Z 2712/2812 34004KT P6SM SCT050
     FM271600 34005KT P6SM FEW250=



000
FTUS41 KBOX 271133
TAFACK
TAF
KACK 271133Z 2712/2812 32008KT P6SM FEW150
     FM280000 30006KT P6SM BKN250=



000
FTUS41 KBOX 271133
TAFBAF
TAF
KBAF 271133Z 2712/2812 33005KT P6SM SCT080=



000
FTUS41 KBOX 271133
TAFBDL
TAF
KBDL 271133Z 2712/2818 33005KT P6SM SCT100=



000
FTUS41 KBOX 271133
TAFORH
TAF
KORH 271133Z 2712/2812 32005KT P6SM SCT080
     FM271500 32006KT P6SM FEW250=



000
FTUS41 KBOX 271133
TAFBOS
TAF
KBOS 271133Z 2712/2818 30007KT P6SM FEW050
     FM271500 32007KT P6SM FEW250
     FM281700 28006KT P6SM SKC=



000
FTUS41 KBOX 271133
TAFBAF
TAF
KBAF 271133Z 2712/2812 33005KT P6SM SCT080=



000
FTUS41 KBOX 271133
TAFORH
TAF
KORH 271133Z 2712/2812 32005KT P6SM SCT080
     FM271500 32006KT P6SM FEW250=



000
FTUS41 KBOX 271133
TAFBDL
TAF
KBDL 271133Z 2712/2818 33005KT P6SM SCT100=



000
FTUS41 KBOX 271133
TAFPVD
TAF
KPVD 271133Z 2712/2812 34004KT P6SM SCT050
     FM271600 34005KT P6SM FEW250=



000
FTUS41 KBOX 271133
TAFACK
TAF
KACK 271133Z 2712/2812 32008KT P6SM FEW150
     FM280000 30006KT P6SM BKN250=



000
FTUS41 KBOX 271133
TAFBOS
TAF
KBOS 271133Z 2712/2818 30007KT P6SM FEW050
     FM271500 32007KT P6SM FEW250
     FM281700 28006KT P6SM SKC=



000
FTUS41 KBOX 270911 AAA
TAFPVD
TAF AMD
KPVD 270911Z 2709/2806 34004KT P6SM SCT040 BKN080
     FM272100 30007KT P6SM BKN250=



000
FTUS41 KBOX 270911 AAA
TAFPVD
TAF AMD
KPVD 270911Z 2709/2806 34004KT P6SM SCT040 BKN080
     FM272100 30007KT P6SM BKN250=



000
FTUS41 KBOX 270909 AAA
TAFBDL
TAF AMD
KBDL 270909Z 2709/2812 34006KT P6SM SCT040 BKN060
     FM272000 32007KT P6SM SCT250=



000
FTUS41 KBOX 270909 AAA
TAFBDL
TAF AMD
KBDL 270909Z 2709/2812 34006KT P6SM SCT040 BKN060
     FM272000 32007KT P6SM SCT250=



000
FTUS41 KBOX 270907 AAA
TAFBOS
TAF AMD
KBOS 270907Z 2709/2812 33010KT P6SM SCT040 BKN080
     FM272200 30010KT P6SM SCT250=



000
FTUS41 KBOX 270907 AAA
TAFBOS
TAF AMD
KBOS 270907Z 2709/2812 33010KT P6SM SCT040 BKN080
     FM272200 30010KT P6SM SCT250=



000
FTUS41 KBOX 270536
TAFBDL
TAF
KBDL 270536Z 2706/2812 34004KT P6SM SCT040 BKN060
     FM272000 32007KT P6SM SCT250=



000
FTUS41 KBOX 270536
TAFBAF
TAF
KBAF 270536Z 2706/2806 35003KT P6SM SCT040 BKN060
     FM271700 34007KT P6SM SCT040 BKN070
     FM271900 34007KT P6SM SCT090=



000
FTUS41 KBOX 270536
TAFPVD
TAF
KPVD 270536Z 2706/2806 34004KT P6SM SCT040 BKN070
     FM272100 30007KT P6SM BKN250=



000
FTUS41 KBOX 270536
TAFBOS
TAF
KBOS 270536Z 2706/2812 33007KT P6SM SCT040 BKN080
     FM272200 29008KT P6SM SCT250=



000
FTUS41 KBOX 270536
TAFORH
TAF
KORH 270536Z 2706/2806 32004KT P6SM SCT040 BKN080
     FM271900 29006KT P6SM SCT040
     FM280100 27004KT P6SM SCT250=



000
FTUS41 KBOX 270536
TAFACK
TAF
KACK 270536Z 2706/2806 36009KT P6SM BKN070
     FM271000 35005KT P6SM SCT050 BKN080
     FM271600 34009KT P6SM SCT050 BKN080
     FM272300 30006KT P6SM BKN250=



000
FTUS41 KBOX 270536
TAFBDL
TAF
KBDL 270536Z 2706/2812 34004KT P6SM SCT040 BKN060
     FM272000 32007KT P6SM SCT250=



000
FTUS41 KBOX 270536
TAFACK
TAF
KACK 270536Z 2706/2806 36009KT P6SM BKN070
     FM271000 35005KT P6SM SCT050 BKN080
     FM271600 34009KT P6SM SCT050 BKN080
     FM272300 30006KT P6SM BKN250=



000
FTUS41 KBOX 270536
TAFBAF
TAF
KBAF 270536Z 2706/2806 35003KT P6SM SCT040 BKN060
     FM271700 34007KT P6SM SCT040 BKN070
     FM271900 34007KT P6SM SCT090=



000
FTUS41 KBOX 270536
TAFORH
TAF
KORH 270536Z 2706/2806 32004KT P6SM SCT040 BKN080
     FM271900 29006KT P6SM SCT040
     FM280100 27004KT P6SM SCT250=



000
FTUS41 KBOX 270536
TAFPVD
TAF
KPVD 270536Z 2706/2806 34004KT P6SM SCT040 BKN070
     FM272100 30007KT P6SM BKN250=



000
FTUS41 KBOX 270536
TAFBOS
TAF
KBOS 270536Z 2706/2812 33007KT P6SM SCT040 BKN080
     FM272200 29008KT P6SM SCT250=



000
FTUS41 KBOX 262320
TAFBOS
TAF
KBOS 262320Z 2700/2806 36006KT P6SM BKN090
     FM271100 33006KT P6SM SCT090=



000
FTUS41 KBOX 262320
TAFPVD
TAF
KPVD 262320Z 2700/2724 02011KT P6SM OVC025
     FM270300 36008KT P6SM BKN050
     FM270500 34004KT P6SM BKN090=



000
FTUS41 KBOX 262320
TAFACK
TAF
KACK 262320Z 2700/2724 01013G23KT P6SM BKN020
     FM270300 36010G18KT P6SM BKN050
     FM271000 36007KT P6SM SCT050
     FM272200 33007KT P6SM BKN050=



000
FTUS41 KBOX 262320
TAFBOS
TAF
KBOS 262320Z 2700/2806 36006KT P6SM BKN090
     FM271100 33006KT P6SM SCT090=



000
FTUS41 KBOX 262320
TAFBAF
TAF
KBAF 262320Z 2700/2724 00000KT P6SM BKN080
     FM271900 33006KT P6SM SCT070=



000
FTUS41 KBOX 262320
TAFORH
TAF
KORH 262320Z 2700/2724 VRB03KT P6SM BKN090
     FM271100 33005KT P6SM SCT050
     FM272100 31007KT P6SM SCT250=



000
FTUS41 KBOX 262320
TAFBDL
TAF
KBDL 262320Z 2700/2806 34004KT P6SM BKN100
     FM271300 34004KT P6SM BKN050
     FM271900 33005KT P6SM SCT070=



000
FTUS41 KBOX 262320
TAFBDL
TAF
KBDL 262320Z 2700/2806 34004KT P6SM BKN100
     FM271300 34004KT P6SM BKN050
     FM271900 33005KT P6SM SCT070=



000
FTUS41 KBOX 262320
TAFACK
TAF
KACK 262320Z 2700/2724 01013G23KT P6SM BKN020
     FM270300 36010G18KT P6SM BKN050
     FM271000 36007KT P6SM SCT050
     FM272200 33007KT P6SM BKN050=



000
FTUS41 KBOX 262320
TAFBDL
TAF
KBDL 262320Z 2700/2806 34004KT P6SM BKN100
     FM271300 34004KT P6SM BKN050
     FM271900 33005KT P6SM SCT070=



000
FTUS41 KBOX 262320
TAFBOS
TAF
KBOS 262320Z 2700/2806 36006KT P6SM BKN090
     FM271100 33006KT P6SM SCT090=



000
FTUS41 KBOX 262320
TAFORH
TAF
KORH 262320Z 2700/2724 VRB03KT P6SM BKN090
     FM271100 33005KT P6SM SCT050
     FM272100 31007KT P6SM SCT250=



000
FTUS41 KBOX 262320
TAFACK
TAF
KACK 262320Z 2700/2724 01013G23KT P6SM BKN020
     FM270300 36010G18KT P6SM BKN050
     FM271000 36007KT P6SM SCT050
     FM272200 33007KT P6SM BKN050=



000
FTUS41 KBOX 262320
TAFBAF
TAF
KBAF 262320Z 2700/2724 00000KT P6SM BKN080
     FM271900 33006KT P6SM SCT070=



000
FTUS41 KBOX 262320
TAFPVD
TAF
KPVD 262320Z 2700/2724 02011KT P6SM OVC025
     FM270300 36008KT P6SM BKN050
     FM270500 34004KT P6SM BKN090=



000
FTUS41 KBOX 262320
TAFBDL
TAF
KBDL 262320Z 2700/2806 34004KT P6SM BKN100
     FM271300 34004KT P6SM BKN050
     FM271900 33005KT P6SM SCT070=



000
FTUS41 KBOX 262320
TAFPVD
TAF
KPVD 262320Z 2700/2724 02011KT P6SM OVC025
     FM270300 36008KT P6SM BKN050
     FM270500 34004KT P6SM BKN090=



000
FTUS41 KBOX 262320
TAFBOS
TAF
KBOS 262320Z 2700/2806 36006KT P6SM BKN090
     FM271100 33006KT P6SM SCT090=



000
FTUS41 KBOX 262320
TAFORH
TAF
KORH 262320Z 2700/2724 VRB03KT P6SM BKN090
     FM271100 33005KT P6SM SCT050
     FM272100 31007KT P6SM SCT250=



000
FTUS41 KBOX 262320
TAFBAF
TAF
KBAF 262320Z 2700/2724 00000KT P6SM BKN080
     FM271900 33006KT P6SM SCT070=



000
FTUS41 KBOX 262121 AAA
TAFACK
TAF AMD
KACK 262121Z 2621/2718 03015KT 5SM -SHSN BKN008 OVC015
     FM262300 02015G23KT P6SM -SHSN OVC015
     FM270600 36010KT P6SM BKN020
     FM270900 36007KT P6SM BKN070=



000
FTUS41 KBOX 262121 AAA
TAFACK
TAF AMD
KACK 262121Z 2621/2718 03015KT 5SM -SHSN BKN008 OVC015
     FM262300 02015G23KT P6SM -SHSN OVC015
     FM270600 36010KT P6SM BKN020
     FM270900 36007KT P6SM BKN070=



000
FTUS41 KBOX 262119 AAB
TAFPVD
TAF AMD
KPVD 262119Z 2621/2718 01006KT P6SM OVC025
     FM270100 01006KT P6SM OVC040=



000
FTUS41 KBOX 262119 AAB
TAFPVD
TAF AMD
KPVD 262119Z 2621/2718 01006KT P6SM OVC025
     FM270100 01006KT P6SM OVC040=



000
FTUS41 KBOX 262118 AAA
TAFBAF
TAF AMD
KBAF 262118Z 2621/2718 36005KT P6SM SCT025 OVC100
     FM270100 00000KT P6SM OVC070=



000
FTUS41 KBOX 262118 AAA
TAFBAF
TAF AMD
KBAF 262118Z 2621/2718 36005KT P6SM SCT025 OVC100
     FM270100 00000KT P6SM OVC070=



000
FTUS41 KBOX 262118 AAB
TAFBDL
TAF AMD
KBDL 262118Z 2621/2724 34008KT P6SM SCT035 OVC120
     FM270000 VRB03KT P6SM OVC070
     FM272000 33006KT P6SM SCT250=



000
FTUS41 KBOX 262118 AAB
TAFBDL
TAF AMD
KBDL 262118Z 2621/2724 34008KT P6SM SCT035 OVC120
     FM270000 VRB03KT P6SM OVC070
     FM272000 33006KT P6SM SCT250=



000
FTUS41 KBOX 262117 AAB
TAFBOS
TAF AMD
KBOS 262117Z 2621/2724 02012KT P6SM SCT025 OVC100
     FM262300 36008KT P6SM OVC080
     FM271700 32007KT P6SM BKN060
     FM272000 31007KT P6SM SCT070=



000
FTUS41 KBOX 262117 AAB
TAFBOS
TAF AMD
KBOS 262117Z 2621/2724 02012KT P6SM SCT025 OVC100
     FM262300 36008KT P6SM OVC080
     FM271700 32007KT P6SM BKN060
     FM272000 31007KT P6SM SCT070=



000
FTUS41 KBOX 261921 AAA
TAFBOS
TAF AMD
KBOS 261921Z 2619/2724 02012KT P6SM BKN028 OVC120
     FM262300 36008KT P6SM OVC050
     FM271700 32007KT P6SM BKN060
     FM272000 31007KT P6SM SCT070=



000
FTUS41 KBOX 261921 AAA
TAFBOS
TAF AMD
KBOS 261921Z 2619/2724 02012KT P6SM BKN028 OVC120
     FM262300 36008KT P6SM OVC050
     FM271700 32007KT P6SM BKN060
     FM272000 31007KT P6SM SCT070=



000
FTUS41 KBOX 261920 AAA
TAFBDL
TAF AMD
KBDL 261920Z 2619/2724 36008KT P6SM SCT025 BKN120
     FM270000 VRB03KT P6SM OVC070
     FM272000 33006KT P6SM SCT250=



000
FTUS41 KBOX 261919 AAA
TAFPVD
TAF AMD
KPVD 261919Z 2619/2718 01009KT 6SM -SHSN BKN035 OVC080
     FM262100 01006KT P6SM OVC050
     FM270100 01006KT P6SM OVC040=



000
FTUS41 KBOX 261919 AAA
TAFPVD
TAF AMD
KPVD 261919Z 2619/2718 01009KT 6SM -SHSN BKN035 OVC080
     FM262100 01006KT P6SM OVC050
     FM270100 01006KT P6SM OVC040=



000
FTUS41 KBOX 261728
TAFBDL
TAF
KBDL 261728Z 2618/2724 36006KT 2SM -SN OVC020
     FM262000 35006KT P6SM OVC025
     FM270000 VRB03KT P6SM OVC070
     FM272000 33006KT P6SM SCT250=



000
FTUS41 KBOX 261728
TAFACK
TAF
KACK 261728Z 2618/2718 03014KT 1/2SM SN OVC008
     FM262000 03015KT 1SM -SN OVC010
     FM262300 02015G23KT P6SM -SHSN OVC015
     FM270600 36010KT P6SM BKN020
     FM270900 36007KT P6SM BKN070=



000
FTUS41 KBOX 261728
TAFORH
TAF
KORH 261728Z 2618/2718 01007KT 5SM -SN OVC035
     FM262000 36006KT P6SM OVC025
     FM262300 32005KT P6SM OVC060=



000
FTUS41 KBOX 261728
TAFPVD
TAF
KPVD 261728Z 2618/2718 01009KT 1 1/2SM -SN OVC025
     FM262000 01010KT 5SM -SHSN OVC015
     FM270000 01006KT P6SM OVC020
     FM270100 01006KT P6SM OVC040=



000
FTUS41 KBOX 261728
TAFACK
TAF
KACK 261728Z 2618/2718 03014KT 1/2SM SN OVC008
     FM262000 03015KT 1SM -SN OVC010
     FM262300 02015G23KT P6SM -SHSN OVC015
     FM270600 36010KT P6SM BKN020
     FM270900 36007KT P6SM BKN070=



000
FTUS41 KBOX 261728
TAFORH
TAF
KORH 261728Z 2618/2718 01007KT 5SM -SN OVC035
     FM262000 36006KT P6SM OVC025
     FM262300 32005KT P6SM OVC060=



000
FTUS41 KBOX 261728
TAFBOS
TAF
KBOS 261728Z 2618/2724 36010KT 2SM -SN BKN025 OVC035
     FM262000 01010KT 6SM -SHSN OVC035
     FM262300 36008KT P6SM OVC050
     FM271700 32007KT P6SM BKN060
     FM272000 31007KT P6SM SCT070=



000
FTUS41 KBOX 261728
TAFBOS
TAF
KBOS 261728Z 2618/2724 36010KT 2SM -SN BKN025 OVC035
     FM262000 01010KT 6SM -SHSN OVC035
     FM262300 36008KT P6SM OVC050
     FM271700 32007KT P6SM BKN060
     FM272000 31007KT P6SM SCT070=



000
FTUS41 KBOX 261728
TAFBDL
TAF
KBDL 261728Z 2618/2724 36006KT 2SM -SN OVC020
     FM262000 35006KT P6SM OVC025
     FM270000 VRB03KT P6SM OVC070
     FM272000 33006KT P6SM SCT250=



000
FTUS41 KBOX 261728
TAFBAF
TAF
KBAF 261728Z 2618/2718 36006KT 2SM -SN BKN015 OVC025
     FM262000 36005KT P6SM OVC025
     FM270100 00000KT P6SM OVC070=



000
FTUS41 KBOX 261642 AAB
TAFBOS
TAF AMD
KBOS 261642Z 2617/2718 36011KT 2SM -SN OVC025
     FM262000 02010G18KT P6SM OVC025
     FM262200 01009KT P6SM OVC040
     FM270900 33007KT P6SM BKN040=



000
FTUS41 KBOX 261642 AAB
TAFBOS
TAF AMD
KBOS 261642Z 2617/2718 36011KT 2SM -SN OVC025
     FM262000 02010G18KT P6SM OVC025
     FM262200 01009KT P6SM OVC040
     FM270900 33007KT P6SM BKN040=



000
FTUS41 KBOX 261545 AAA
TAFBAF
TAF AMD
KBAF 261545Z 2616/2712 01009KT 3SM -SN BKN025 OVC040
     FM261900 01005KT P6SM OVC030
     FM270500 00000KT P6SM BKN040=



000
FTUS41 KBOX 261545 AAA
TAFBAF
TAF AMD
KBAF 261545Z 2616/2712 01009KT 3SM -SN BKN025 OVC040
     FM261900 01005KT P6SM OVC030
     FM270500 00000KT P6SM BKN040=



000
FTUS41 KBOX 261536 AAA
TAFACK
TAF AMD
KACK 261536Z 2616/2712 04013KT 1SM -SN OVC010
      TEMPO 2616/2619 1/2SM SN OVC007
     FM262200 03014G23KT P6SM OVC010
     FM270700 36009KT P6SM BKN045=



000
FTUS41 KBOX 261534 AAA
TAFPVD
TAF AMD
KPVD 261534Z 2616/2712 01011KT P6SM OVC060
     FM261700 02009KT 3SM -SN OVC020
     FM262200 02007KT P6SM OVC045
     FM270600 VRB03KT P6SM OVC040
     FM270900 35004KT P6SM BKN030=



000
FTUS41 KBOX 261534 AAA
TAFBDL
TAF AMD
KBDL 261534Z 2616/2718 02010KT 3SM -SN BKN025 OVC035
     FM262000 36006KT P6SM OVC025
     FM270000 VRB03KT P6SM OVC040
     FM270800 VRB03KT P6SM BKN035=



000
FTUS41 KBOX 261532 AAA
TAFBOS
TAF AMD
KBOS 261532Z 2616/2718 35009KT P6SM OVC060
     FM261800 02010G18KT P6SM -SHSN OVC025
     FM262200 01009KT P6SM OVC040
     FM270900 33007KT P6SM BKN040=



000
FTUS41 KBOX 261532 AAA
TAFBOS
TAF AMD
KBOS 261532Z 2616/2718 35009KT P6SM OVC060
     FM261800 02010G18KT P6SM -SHSN OVC025
     FM262200 01009KT P6SM OVC040
     FM270900 33007KT P6SM BKN040=



    US Dept of Commerce
    National Oceanic and Atmospheric Administration
    National Weather Service
    1325 East West Highway
    Silver Spring, MD 20910
    Page Author: NWS Internet Services Team
Disclaimer
Information Quality
Credits
Glossary
Privacy Policy
Freedom of Information Act (FOIA)
About Us
Career Opportunities